createdAt,value
2017-01-29T00:00:28.596Z,929.31
2017-01-29T00:01:42.948Z,929.37
2017-01-29T00:02:57.284Z,929.42
2017-01-29T00:04:11.634Z,929.38
2017-01-29T00:05:26.030Z,929.42
2017-01-29T00:06:40.400Z,929.4
2017-01-29T00:07:54.178Z,929.4
2017-01-29T00:09:08.516Z,929.37
2017-01-29T00:10:22.854Z,929.42
2017-01-29T00:11:37.204Z,929.42
2017-01-29T00:12:51.587Z,929.44
2017-01-29T00:14:05.969Z,929.41
2017-01-29T00:15:18.393Z,929.41
2017-01-29T00:16:32.767Z,929.37
2017-01-29T00:17:47.138Z,929.49
2017-01-29T00:19:01.498Z,929.47
2017-01-29T00:20:15.232Z,929.48
2017-01-29T00:21:29.597Z,929.51
2017-01-29T00:22:43.987Z,929.54
2017-01-29T00:23:58.356Z,929.5
2017-01-29T00:25:12.797Z,929.53
2017-01-29T00:26:27.174Z,929.5
2017-01-29T00:27:41.562Z,929.49
2017-01-29T00:28:55.969Z,929.46
2017-01-29T00:30:10.372Z,929.45
2017-01-29T00:31:24.793Z,929.42
2017-01-29T00:32:38.540Z,929.48
2017-01-29T00:33:52.296Z,929.46
2017-01-29T00:35:06.043Z,929.53
2017-01-29T00:36:19.760Z,929.47
2017-01-29T00:37:34.126Z,929.44
2017-01-29T00:38:47.858Z,929.45
2017-01-29T00:40:02.210Z,929.45
2017-01-29T00:41:15.974Z,929.47
2017-01-29T00:42:30.304Z,929.4
2017-01-29T00:43:44.693Z,929.4
2017-01-29T00:44:59.081Z,929.39
2017-01-29T00:46:13.458Z,929.36
2017-01-29T00:47:27.815Z,929.36
2017-01-29T00:48:41.712Z,929.34
2017-01-29T00:49:55.423Z,929.3
2017-01-29T00:51:09.141Z,929.25
2017-01-29T00:52:22.857Z,929.3
2017-01-29T00:53:37.255Z,929.27
2017-01-29T00:54:51.691Z,929.2
2017-01-29T00:56:06.096Z,929.18
2017-01-29T00:57:19.832Z,929.18
2017-01-29T00:58:34.222Z,929.21
2017-01-29T00:59:47.955Z,929.19
2017-01-29T01:01:01.690Z,929.16
2017-01-29T01:02:15.400Z,929.13
2017-01-29T01:03:29.785Z,929.2
2017-01-29T01:04:44.153Z,929.17
2017-01-29T01:05:58.491Z,929.15
2017-01-29T01:07:12.182Z,929.19
2017-01-29T01:08:26.552Z,929.23
2017-01-29T01:09:40.954Z,929.25
2017-01-29T01:10:55.338Z,929.25
2017-01-29T01:12:09.063Z,929.33
2017-01-29T01:13:22.809Z,929.33
2017-01-29T01:14:37.194Z,929.42
2017-01-29T01:15:51.624Z,929.43
2017-01-29T01:17:05.343Z,929.42
2017-01-29T01:18:19.695Z,929.42
2017-01-29T01:19:34.060Z,929.47
2017-01-29T01:20:47.985Z,929.47
2017-01-29T01:22:02.358Z,929.48
2017-01-29T01:23:16.749Z,929.47
2017-01-29T01:24:31.162Z,929.44
2017-01-29T01:25:45.530Z,929.45
2017-01-29T01:26:59.858Z,929.47
2017-01-29T01:28:14.227Z,929.48
2017-01-29T01:29:28.646Z,929.49
2017-01-29T01:30:43.062Z,929.49
2017-01-29T01:31:57.469Z,929.46
2017-01-29T01:33:11.832Z,929.49
2017-01-29T01:34:26.199Z,929.49
2017-01-29T01:35:40.565Z,929.48
2017-01-29T01:36:54.945Z,929.47
2017-01-29T01:38:09.301Z,929.47
2017-01-29T01:39:23.026Z,929.43
2017-01-29T01:40:37.581Z,929.46
2017-01-29T01:41:51.913Z,929.48
2017-01-29T01:43:05.652Z,929.46
2017-01-29T01:44:20.018Z,929.46
2017-01-29T01:45:33.742Z,929.47
2017-01-29T01:46:47.431Z,929.43
2017-01-29T01:48:01.793Z,929.43
2017-01-29T01:49:16.191Z,929.4
2017-01-29T01:50:30.580Z,929.39
2017-01-29T01:51:44.960Z,929.37
2017-01-29T01:52:59.357Z,929.41
2017-01-29T01:54:13.731Z,929.45
2017-01-29T01:55:27.435Z,929.48
2017-01-29T01:56:41.794Z,929.5
2017-01-29T01:57:54.890Z,929.55
2017-01-29T01:59:09.268Z,929.52
2017-01-29T02:00:23.048Z,929.55
2017-01-29T02:01:37.384Z,929.53
2017-01-29T02:02:51.764Z,929.5
2017-01-29T02:04:06.151Z,929.53
2017-01-29T02:05:20.561Z,929.51
2017-01-29T02:06:34.331Z,929.51
2017-01-29T02:07:48.702Z,929.52
2017-01-29T02:09:03.074Z,929.55
2017-01-29T02:10:16.821Z,929.55
2017-01-29T02:11:31.211Z,929.55
2017-01-29T02:12:45.594Z,929.55
2017-01-29T02:13:59.942Z,929.52
2017-01-29T02:15:14.325Z,929.57
2017-01-29T02:16:28.909Z,929.55
2017-01-29T02:17:43.269Z,929.57
2017-01-29T02:18:57.038Z,929.55
2017-01-29T02:20:11.409Z,929.54
2017-01-29T02:21:25.770Z,929.49
2017-01-29T02:22:40.140Z,929.5
2017-01-29T02:23:54.537Z,929.53
2017-01-29T02:25:08.957Z,929.49
2017-01-29T02:26:23.319Z,929.55
2017-01-29T02:27:37.707Z,929.54
2017-01-29T02:28:52.096Z,929.52
2017-01-29T02:30:05.199Z,929.53
2017-01-29T02:31:19.548Z,929.54
2017-01-29T02:32:33.896Z,929.53
2017-01-29T02:33:48.288Z,929.49
2017-01-29T02:35:02.679Z,929.53
2017-01-29T02:36:17.043Z,929.49
2017-01-29T02:37:31.396Z,929.49
2017-01-29T02:38:45.769Z,929.47
2017-01-29T02:40:00.138Z,929.49
2017-01-29T02:41:13.244Z,929.49
2017-01-29T02:42:27.794Z,929.37
2017-01-29T02:43:42.155Z,929.44
2017-01-29T02:44:55.889Z,929.41
2017-01-29T02:46:09.633Z,929.38
2017-01-29T02:47:24.028Z,929.42
2017-01-29T02:48:38.396Z,929.39
2017-01-29T02:49:52.117Z,929.42
2017-01-29T02:51:06.501Z,929.39
2017-01-29T02:52:20.875Z,929.36
2017-01-29T02:53:35.234Z,929.33
2017-01-29T02:54:49.599Z,929.24
2017-01-29T02:56:03.312Z,929.23
2017-01-29T02:57:17.687Z,929.27
2017-01-29T02:58:32.056Z,929.3
2017-01-29T02:59:46.429Z,929.37
2017-01-29T03:01:00.859Z,929.38
2017-01-29T03:02:14.618Z,929.37
2017-01-29T03:03:29.009Z,929.36
2017-01-29T03:04:43.373Z,929.38
2017-01-29T03:05:57.095Z,929.35
2017-01-29T03:07:10.174Z,929.33
2017-01-29T03:08:24.547Z,929.29
2017-01-29T03:09:38.906Z,929.25
2017-01-29T03:10:53.301Z,929.26
2017-01-29T03:12:07.698Z,929.26
2017-01-29T03:13:22.101Z,929.21
2017-01-29T03:14:36.438Z,929.2
2017-01-29T03:15:50.811Z,929.21
2017-01-29T03:17:05.216Z,929.19
2017-01-29T03:18:19.574Z,929.23
2017-01-29T03:19:33.948Z,929.22
2017-01-29T03:20:48.305Z,929.25
2017-01-29T03:22:02.667Z,929.26
2017-01-29T03:23:15.758Z,929.27
2017-01-29T03:24:30.134Z,929.22
2017-01-29T03:25:44.494Z,929.22
2017-01-29T03:26:58.257Z,929.18
2017-01-29T03:28:11.984Z,929.2
2017-01-29T03:29:27.689Z,929.18
2017-01-29T03:30:42.298Z,929.18
2017-01-29T03:31:56.672Z,929.17
2017-01-29T03:33:11.038Z,929.14
2017-01-29T03:34:25.417Z,929.2
2017-01-29T03:35:39.793Z,929.16
2017-01-29T03:36:54.163Z,929.14
2017-01-29T03:38:08.527Z,929.14
2017-01-29T03:39:22.283Z,929.13
2017-01-29T03:40:36.677Z,929.12
2017-01-29T03:41:51.015Z,929.11
2017-01-29T03:43:05.364Z,929.06
2017-01-29T03:44:19.689Z,929.06
2017-01-29T03:45:34.123Z,929.01
2017-01-29T03:46:48.488Z,929.06
2017-01-29T03:48:02.198Z,929.04
2017-01-29T03:49:15.877Z,929.01
2017-01-29T03:50:30.220Z,929.01
2017-01-29T03:51:44.589Z,928.93
2017-01-29T03:52:58.989Z,928.93
2017-01-29T03:54:13.373Z,928.9
2017-01-29T03:55:27.713Z,928.88
2017-01-29T03:56:42.084Z,928.88
2017-01-29T03:57:56.483Z,928.86
2017-01-29T03:59:10.213Z,928.82
2017-01-29T04:00:24.656Z,928.79
2017-01-29T04:01:38.999Z,928.82
2017-01-29T04:02:53.365Z,928.77
2017-01-29T04:04:07.729Z,928.79
2017-01-29T04:05:21.447Z,928.74
2017-01-29T04:06:35.790Z,928.83
2017-01-29T04:07:50.163Z,928.8
2017-01-29T04:09:04.506Z,928.81
2017-01-29T04:10:18.881Z,928.77
2017-01-29T04:11:33.237Z,928.78
2017-01-29T04:12:47.619Z,928.79
2017-01-29T04:14:01.971Z,928.76
2017-01-29T04:15:14.413Z,928.77
2017-01-29T04:16:28.797Z,928.8
2017-01-29T04:17:43.188Z,928.77
2017-01-29T04:18:57.576Z,928.75
2017-01-29T04:20:11.287Z,928.69
2017-01-29T04:21:25.665Z,928.77
2017-01-29T04:22:39.357Z,928.75
2017-01-29T04:23:53.746Z,928.7
2017-01-29T04:25:07.456Z,928.75
2017-01-29T04:26:21.188Z,928.66
2017-01-29T04:27:35.584Z,928.69
2017-01-29T04:28:49.950Z,928.72
2017-01-29T04:30:04.370Z,928.69
2017-01-29T04:31:18.779Z,928.74
2017-01-29T04:32:33.183Z,928.73
2017-01-29T04:33:47.568Z,928.73
2017-01-29T04:35:01.934Z,928.69
2017-01-29T04:36:16.281Z,928.66
2017-01-29T04:37:30.664Z,928.65
2017-01-29T04:38:45.056Z,928.6
2017-01-29T04:39:58.770Z,928.62
2017-01-29T04:41:13.132Z,928.56
2017-01-29T04:42:27.515Z,928.53
2017-01-29T04:43:41.863Z,928.52
2017-01-29T04:44:56.217Z,928.51
2017-01-29T04:46:10.545Z,928.46
2017-01-29T04:47:24.893Z,928.5
2017-01-29T04:48:39.301Z,928.44
2017-01-29T04:49:53.695Z,928.5
2017-01-29T04:51:07.449Z,928.38
2017-01-29T04:52:21.824Z,928.45
2017-01-29T04:53:36.176Z,928.4
2017-01-29T04:54:50.541Z,928.37
2017-01-29T04:56:04.299Z,928.39
2017-01-29T04:57:18.695Z,928.37
2017-01-29T04:58:33.109Z,928.36
2017-01-29T04:59:47.446Z,928.33
2017-01-29T05:01:01.182Z,928.37
2017-01-29T05:02:15.560Z,928.41
2017-01-29T05:03:29.924Z,928.42
2017-01-29T05:04:44.294Z,928.38
2017-01-29T05:05:58.640Z,928.4
2017-01-29T05:07:11.725Z,928.39
2017-01-29T05:08:26.105Z,928.42
2017-01-29T05:09:40.464Z,928.4
2017-01-29T05:10:54.828Z,928.41
2017-01-29T05:12:09.197Z,928.43
2017-01-29T05:13:22.940Z,928.36
2017-01-29T05:14:37.272Z,928.38
2017-01-29T05:15:51.644Z,928.43
2017-01-29T05:17:05.385Z,928.34
2017-01-29T05:18:19.763Z,928.38
2017-01-29T05:19:34.139Z,928.31
2017-01-29T05:20:48.524Z,928.36
2017-01-29T05:22:02.879Z,928.35
2017-01-29T05:23:15.996Z,928.33
2017-01-29T05:24:30.366Z,928.34
2017-01-29T05:25:44.752Z,928.32
2017-01-29T05:26:59.152Z,928.35
2017-01-29T05:28:13.549Z,928.37
2017-01-29T05:29:27.925Z,928.35
2017-01-29T05:30:42.309Z,928.35
2017-01-29T05:31:56.723Z,928.34
2017-01-29T05:33:10.514Z,928.32
2017-01-29T05:34:24.899Z,928.33
2017-01-29T05:35:39.268Z,928.33
2017-01-29T05:36:53.646Z,928.34
2017-01-29T05:38:08.062Z,928.3
2017-01-29T05:39:21.773Z,928.28
2017-01-29T05:40:36.141Z,928.28
2017-01-29T05:41:49.839Z,928.27
2017-01-29T05:43:04.189Z,928.25
2017-01-29T05:44:18.588Z,928.25
2017-01-29T05:45:32.952Z,928.31
2017-01-29T05:46:47.306Z,928.33
2017-01-29T05:48:01.674Z,928.33
2017-01-29T05:49:16.055Z,928.35
2017-01-29T05:50:30.413Z,928.32
2017-01-29T05:51:44.844Z,928.33
2017-01-29T05:52:59.183Z,928.32
2017-01-29T05:54:12.918Z,928.29
2017-01-29T05:55:27.297Z,928.29
2017-01-29T05:56:41.653Z,928.31
2017-01-29T05:57:56.000Z,928.31
2017-01-29T05:59:09.715Z,928.3
2017-01-29T06:00:24.069Z,928.3
2017-01-29T06:01:38.419Z,928.35
2017-01-29T06:02:52.801Z,928.28
2017-01-29T06:04:06.534Z,928.31
2017-01-29T06:05:20.915Z,928.28
2017-01-29T06:06:35.297Z,928.24
2017-01-29T06:07:49.663Z,928.29
2017-01-29T06:09:04.032Z,928.27
2017-01-29T06:10:18.417Z,928.24
2017-01-29T06:11:32.171Z,928.32
2017-01-29T06:12:46.507Z,928.31
2017-01-29T06:14:00.881Z,928.3
2017-01-29T06:15:15.271Z,928.29
2017-01-29T06:16:29.666Z,928.25
2017-01-29T06:17:44.011Z,928.3
2017-01-29T06:18:58.408Z,928.29
2017-01-29T06:20:12.161Z,928.26
2017-01-29T06:21:26.557Z,928.25
2017-01-29T06:22:40.948Z,928.22
2017-01-29T06:23:55.329Z,928.24
2017-01-29T06:25:09.074Z,928.18
2017-01-29T06:26:22.782Z,928.22
2017-01-29T06:27:36.522Z,928.23
2017-01-29T06:28:50.955Z,928.26
2017-01-29T06:30:04.684Z,928.22
2017-01-29T06:31:19.061Z,928.24
2017-01-29T06:32:33.436Z,928.23
2017-01-29T06:33:47.769Z,928.22
2017-01-29T06:35:02.125Z,928.22
2017-01-29T06:36:15.853Z,928.23
2017-01-29T06:37:30.216Z,928.24
2017-01-29T06:38:44.563Z,928.28
2017-01-29T06:39:58.938Z,928.26
2017-01-29T06:41:12.678Z,928.26
2017-01-29T06:42:27.108Z,928.21
2017-01-29T06:43:40.836Z,928.22
2017-01-29T06:44:54.558Z,928.24
2017-01-29T06:46:08.935Z,928.23
2017-01-29T06:47:22.701Z,928.25
2017-01-29T06:48:37.117Z,928.25
2017-01-29T06:49:51.456Z,928.23
2017-01-29T06:51:05.866Z,928.24
2017-01-29T06:52:20.224Z,928.3
2017-01-29T06:53:34.599Z,928.32
2017-01-29T06:54:48.363Z,928.3
2017-01-29T06:56:02.765Z,928.29
2017-01-29T06:57:15.881Z,928.3
2017-01-29T06:58:30.225Z,928.32
2017-01-29T06:59:43.950Z,928.27
2017-01-29T07:00:58.307Z,928.32
2017-01-29T07:02:12.682Z,928.23
2017-01-29T07:03:27.070Z,928.29
2017-01-29T07:04:41.444Z,928.25
2017-01-29T07:05:55.781Z,928.28
2017-01-29T07:07:09.491Z,928.27
2017-01-29T07:08:23.189Z,928.28
2017-01-29T07:09:37.573Z,928.27
2017-01-29T07:10:51.934Z,928.28
2017-01-29T07:12:06.379Z,928.29
2017-01-29T07:13:20.738Z,928.29
2017-01-29T07:14:35.121Z,928.32
2017-01-29T07:15:49.469Z,928.3
2017-01-29T07:17:03.845Z,928.36
2017-01-29T07:18:17.586Z,928.38
2017-01-29T07:19:31.958Z,928.38
2017-01-29T07:20:46.290Z,928.38
2017-01-29T07:22:00.660Z,928.34
2017-01-29T07:23:15.101Z,928.39
2017-01-29T07:24:29.469Z,928.4
2017-01-29T07:25:43.835Z,928.35
2017-01-29T07:26:58.190Z,928.36
2017-01-29T07:28:12.569Z,928.37
2017-01-29T07:29:26.917Z,928.37
2017-01-29T07:30:41.240Z,928.38
2017-01-29T07:31:54.946Z,928.35
2017-01-29T07:33:08.669Z,928.32
2017-01-29T07:34:23.005Z,928.36
2017-01-29T07:35:37.341Z,928.38
2017-01-29T07:36:51.727Z,928.39
2017-01-29T07:38:05.459Z,928.41
2017-01-29T07:39:19.213Z,928.4
2017-01-29T07:40:33.606Z,928.37
2017-01-29T07:41:47.987Z,928.44
2017-01-29T07:43:02.354Z,928.43
2017-01-29T07:44:16.753Z,928.42
2017-01-29T07:45:30.481Z,928.42
2017-01-29T07:46:44.869Z,928.43
2017-01-29T07:47:58.560Z,928.43
2017-01-29T07:49:12.282Z,928.48
2017-01-29T07:50:25.981Z,928.43
2017-01-29T07:51:40.340Z,928.45
2017-01-29T07:52:54.679Z,928.45
2017-01-29T07:54:08.388Z,928.47
2017-01-29T07:55:22.083Z,928.48
2017-01-29T07:56:36.495Z,928.45
2017-01-29T07:57:50.887Z,928.47
2017-01-29T07:59:05.266Z,928.41
2017-01-29T08:00:19.628Z,928.46
2017-01-29T08:01:34.007Z,928.44
2017-01-29T08:02:48.371Z,928.49
2017-01-29T08:04:02.750Z,928.48
2017-01-29T08:05:17.067Z,928.48
2017-01-29T08:06:31.457Z,928.53
2017-01-29T08:07:45.831Z,928.56
2017-01-29T08:09:00.187Z,928.59
2017-01-29T08:10:13.899Z,928.58
2017-01-29T08:11:27.636Z,928.61
2017-01-29T08:12:42.018Z,928.58
2017-01-29T08:13:56.373Z,928.54
2017-01-29T08:15:10.788Z,928.59
2017-01-29T08:16:25.151Z,928.56
2017-01-29T08:17:38.893Z,928.58
2017-01-29T08:18:53.278Z,928.62
2017-01-29T08:20:07.632Z,928.62
2017-01-29T08:21:21.365Z,928.63
2017-01-29T08:22:35.744Z,928.59
2017-01-29T08:23:50.137Z,928.65
2017-01-29T08:25:04.517Z,928.67
2017-01-29T08:26:18.893Z,928.63
2017-01-29T08:27:33.264Z,928.67
2017-01-29T08:28:47.652Z,928.68
2017-01-29T08:30:01.990Z,928.7
2017-01-29T08:31:16.360Z,928.68
2017-01-29T08:32:30.731Z,928.73
2017-01-29T08:33:45.099Z,928.73
2017-01-29T08:34:58.826Z,928.7
2017-01-29T08:36:12.546Z,928.73
2017-01-29T08:37:26.270Z,928.74
2017-01-29T08:38:39.993Z,928.79
2017-01-29T08:39:54.318Z,928.8
2017-01-29T08:41:07.415Z,928.8
2017-01-29T08:42:21.770Z,928.8
2017-01-29T08:43:36.142Z,928.8
2017-01-29T08:44:50.482Z,928.84
2017-01-29T08:46:04.895Z,928.76
2017-01-29T08:47:18.642Z,928.77
2017-01-29T08:48:33.065Z,928.79
2017-01-29T08:49:47.480Z,928.77
2017-01-29T08:51:01.852Z,928.79
2017-01-29T08:52:16.271Z,928.78
2017-01-29T08:53:30.671Z,928.8
2017-01-29T08:54:44.424Z,928.86
2017-01-29T08:55:58.791Z,928.91
2017-01-29T08:57:12.541Z,928.89
2017-01-29T08:58:26.927Z,928.9
2017-01-29T08:59:41.295Z,928.93
2017-01-29T09:00:55.656Z,928.94
2017-01-29T09:02:10.002Z,928.96
2017-01-29T09:03:23.708Z,928.96
2017-01-29T09:04:38.081Z,928.97
2017-01-29T09:05:52.448Z,929.01
2017-01-29T09:07:06.838Z,928.98
2017-01-29T09:08:20.543Z,928.99
2017-01-29T09:09:34.272Z,929.02
2017-01-29T09:10:48.025Z,928.98
2017-01-29T09:12:02.378Z,929.03
2017-01-29T09:13:16.286Z,929.02
2017-01-29T09:14:30.703Z,929.03
2017-01-29T09:15:45.085Z,928.99
2017-01-29T09:16:59.485Z,929.03
2017-01-29T09:18:13.842Z,929.07
2017-01-29T09:19:28.172Z,929.12
2017-01-29T09:20:41.890Z,929.11
2017-01-29T09:21:56.239Z,929.14
2017-01-29T09:23:10.600Z,929.08
2017-01-29T09:24:24.362Z,929.07
2017-01-29T09:25:38.064Z,929.11
2017-01-29T09:26:52.418Z,929.1
2017-01-29T09:28:06.763Z,929.1
2017-01-29T09:29:21.139Z,929.1
2017-01-29T09:30:35.486Z,929.11
2017-01-29T09:31:49.879Z,929.14
2017-01-29T09:33:04.263Z,929.14
2017-01-29T09:34:17.970Z,929.16
2017-01-29T09:35:32.365Z,929.16
2017-01-29T09:36:46.712Z,929.13
2017-01-29T09:38:00.472Z,929.16
2017-01-29T09:39:14.826Z,929.14
2017-01-29T09:40:29.204Z,929.17
2017-01-29T09:41:43.594Z,929.19
2017-01-29T09:42:57.973Z,929.2
2017-01-29T09:44:12.363Z,929.21
2017-01-29T09:45:26.059Z,929.22
2017-01-29T09:46:40.468Z,929.22
2017-01-29T09:47:54.861Z,929.17
2017-01-29T09:49:07.937Z,929.17
2017-01-29T09:50:21.684Z,929.16
2017-01-29T09:51:36.057Z,929.25
2017-01-29T09:52:50.440Z,929.24
2017-01-29T09:54:04.818Z,929.26
2017-01-29T09:55:19.218Z,929.23
2017-01-29T09:56:33.586Z,929.27
2017-01-29T09:57:48.026Z,929.32
2017-01-29T09:59:02.412Z,929.36
2017-01-29T10:00:16.776Z,929.37
2017-01-29T10:01:31.187Z,929.36
2017-01-29T10:02:45.549Z,929.39
2017-01-29T10:04:00.007Z,929.38
2017-01-29T10:05:13.726Z,929.37
2017-01-29T10:06:28.078Z,929.41
2017-01-29T10:07:42.437Z,929.38
2017-01-29T10:08:56.809Z,929.42
2017-01-29T10:10:11.184Z,929.44
2017-01-29T10:11:25.553Z,929.39
2017-01-29T10:12:39.305Z,929.49
2017-01-29T10:13:53.697Z,929.45
2017-01-29T10:15:07.411Z,929.44
2017-01-29T10:16:21.129Z,929.46
2017-01-29T10:17:35.490Z,929.5
2017-01-29T10:18:49.856Z,929.45
2017-01-29T10:20:04.242Z,929.49
2017-01-29T10:21:17.316Z,929.48
2017-01-29T10:22:31.668Z,929.45
2017-01-29T10:23:46.040Z,929.5
2017-01-29T10:25:00.403Z,929.52
2017-01-29T10:26:14.816Z,929.52
2017-01-29T10:27:29.171Z,929.56
2017-01-29T10:28:42.924Z,929.5
2017-01-29T10:29:57.289Z,929.56
2017-01-29T10:31:11.641Z,929.58
2017-01-29T10:32:26.034Z,929.62
2017-01-29T10:33:40.374Z,929.69
2017-01-29T10:34:54.749Z,929.67
2017-01-29T10:36:08.478Z,929.65
2017-01-29T10:37:22.191Z,929.69
2017-01-29T10:38:36.563Z,929.71
2017-01-29T10:39:50.908Z,929.71
2017-01-29T10:41:05.302Z,929.69
2017-01-29T10:42:19.611Z,929.72
2017-01-29T10:43:33.313Z,929.72
2017-01-29T10:44:47.026Z,929.75
2017-01-29T10:46:01.430Z,929.79
2017-01-29T10:47:14.502Z,929.83
2017-01-29T10:48:28.857Z,929.84
2017-01-29T10:49:43.253Z,929.89
2017-01-29T10:50:57.641Z,929.9
2017-01-29T10:52:12.046Z,929.97
2017-01-29T10:53:25.806Z,929.96
2017-01-29T10:54:39.529Z,929.99
2017-01-29T10:55:53.909Z,929.95
2017-01-29T10:57:08.272Z,929.94
2017-01-29T10:58:22.896Z,929.99
2017-01-29T10:59:37.257Z,929.98
2017-01-29T11:00:51.016Z,929.98
2017-01-29T11:02:05.382Z,930.02
2017-01-29T11:03:19.744Z,929.99
2017-01-29T11:04:33.478Z,930.05
2017-01-29T11:05:47.877Z,930.01
2017-01-29T11:07:02.196Z,930.08
2017-01-29T11:08:16.581Z,930.12
2017-01-29T11:09:30.974Z,930.12
2017-01-29T11:10:45.321Z,930.08
2017-01-29T11:11:59.694Z,930.07
2017-01-29T11:13:13.407Z,930.11
2017-01-29T11:14:27.809Z,930.11
2017-01-29T11:15:42.175Z,930.12
2017-01-29T11:16:56.552Z,930.13
2017-01-29T11:18:10.974Z,930.17
2017-01-29T11:19:25.359Z,930.1
2017-01-29T11:20:39.739Z,930.08
2017-01-29T11:21:54.137Z,930.13
2017-01-29T11:23:07.851Z,930.07
2017-01-29T11:24:22.224Z,930.09
2017-01-29T11:25:36.607Z,930.1
2017-01-29T11:26:49.705Z,930.13
2017-01-29T11:28:04.107Z,930.12
2017-01-29T11:29:17.967Z,930.15
2017-01-29T11:30:32.346Z,930.14
2017-01-29T11:31:46.698Z,930.17
2017-01-29T11:33:01.103Z,930.1
2017-01-29T11:34:15.471Z,930.12
2017-01-29T11:35:29.871Z,930.13
2017-01-29T11:36:44.241Z,930.14
2017-01-29T11:37:58.622Z,930.14
2017-01-29T11:39:13.006Z,930.16
2017-01-29T11:40:27.388Z,930.17
2017-01-29T11:41:41.727Z,930.18
2017-01-29T11:42:56.105Z,930.17
2017-01-29T11:44:09.870Z,930.17
2017-01-29T11:45:24.280Z,930.19
2017-01-29T11:46:38.675Z,930.17
2017-01-29T11:47:53.077Z,930.17
2017-01-29T11:49:07.431Z,930.19
2017-01-29T11:50:21.138Z,930.11
2017-01-29T11:51:35.517Z,930.18
2017-01-29T11:52:49.277Z,930.17
2017-01-29T11:54:03.644Z,930.19
2017-01-29T11:55:16.719Z,930.17
2017-01-29T11:56:31.350Z,930.21
2017-01-29T11:57:45.815Z,930.17
2017-01-29T11:59:00.175Z,930.2
2017-01-29T12:00:14.532Z,930.25
2017-01-29T12:01:28.908Z,930.21
2017-01-29T12:02:43.306Z,930.17
2017-01-29T12:03:57.678Z,930.21
2017-01-29T12:05:12.037Z,930.22
2017-01-29T12:06:25.771Z,930.18
2017-01-29T12:07:39.476Z,930.22
2017-01-29T12:08:53.865Z,930.22
2017-01-29T12:10:08.217Z,930.22
2017-01-29T12:11:21.993Z,930.21
2017-01-29T12:12:36.425Z,930.27
2017-01-29T12:13:50.148Z,930.28
2017-01-29T12:15:04.538Z,930.33
2017-01-29T12:16:18.895Z,930.35
2017-01-29T12:17:33.313Z,930.35
2017-01-29T12:18:47.093Z,930.37
2017-01-29T12:20:01.469Z,930.4
2017-01-29T12:21:15.186Z,930.38
2017-01-29T12:22:29.541Z,930.37
2017-01-29T12:23:43.273Z,930.34
2017-01-29T12:24:57.648Z,930.34
2017-01-29T12:26:11.378Z,930.33
2017-01-29T12:27:25.753Z,930.36
2017-01-29T12:28:40.096Z,930.38
2017-01-29T12:29:53.864Z,930.31
2017-01-29T12:31:08.231Z,930.35
2017-01-29T12:32:22.607Z,930.32
2017-01-29T12:34:00.950Z,930.39
2017-01-29T12:35:15.299Z,930.42
2017-01-29T12:36:29.724Z,930.39
2017-01-29T12:37:44.112Z,930.41
2017-01-29T12:38:58.460Z,930.41
2017-01-29T12:40:12.830Z,930.41
2017-01-29T12:41:27.227Z,930.4
2017-01-29T12:42:41.009Z,930.4
2017-01-29T12:43:54.122Z,930.46
2017-01-29T12:45:08.515Z,930.4
2017-01-29T12:46:22.865Z,930.45
2017-01-29T12:47:37.252Z,930.44
2017-01-29T12:48:51.631Z,930.4
2017-01-29T12:50:06.004Z,930.43
2017-01-29T12:51:19.722Z,930.42
2017-01-29T12:52:34.118Z,930.39
2017-01-29T12:53:47.884Z,930.42
2017-01-29T12:55:02.254Z,930.41
2017-01-29T12:56:16.002Z,930.43
2017-01-29T12:57:30.383Z,930.37
2017-01-29T12:58:44.781Z,930.35
2017-01-29T12:59:59.242Z,930.37
2017-01-29T13:01:13.058Z,930.35
2017-01-29T13:02:27.445Z,930.35
2017-01-29T13:03:41.815Z,930.39
2017-01-29T13:04:56.225Z,930.37
2017-01-29T13:06:09.959Z,930.38
2017-01-29T13:07:24.511Z,930.41
2017-01-29T13:08:38.870Z,930.39
2017-01-29T13:09:53.289Z,930.4
2017-01-29T13:11:06.406Z,930.33
2017-01-29T13:12:20.757Z,930.4
2017-01-29T13:13:35.144Z,930.4
2017-01-29T13:14:49.535Z,930.37
2017-01-29T13:16:03.922Z,930.39
2017-01-29T13:17:18.319Z,930.35
2017-01-29T13:18:32.728Z,930.33
2017-01-29T13:19:47.156Z,930.33
2017-01-29T13:21:01.590Z,930.33
2017-01-29T13:22:15.978Z,930.31
2017-01-29T13:23:30.346Z,930.32
2017-01-29T13:24:44.063Z,930.31
2017-01-29T13:25:58.420Z,930.27
2017-01-29T13:27:12.794Z,930.25
2017-01-29T13:28:26.553Z,930.21
2017-01-29T13:29:40.308Z,930.23
2017-01-29T13:30:54.038Z,930.22
2017-01-29T13:32:08.423Z,930.22
2017-01-29T13:33:22.178Z,930.22
2017-01-29T13:34:36.587Z,930.23
2017-01-29T13:35:50.967Z,930.2
2017-01-29T13:37:05.336Z,930.17
2017-01-29T13:38:19.053Z,930.16
2017-01-29T13:39:33.445Z,930.16
2017-01-29T13:40:47.788Z,930.16
2017-01-29T13:42:02.162Z,930.14
2017-01-29T13:43:16.553Z,930.14
2017-01-29T13:44:30.912Z,930.06
2017-01-29T13:45:45.302Z,930.05
2017-01-29T13:46:59.675Z,930.04
2017-01-29T13:48:14.058Z,930.04
2017-01-29T13:49:28.465Z,930.05
2017-01-29T13:50:42.233Z,930.02
2017-01-29T13:51:55.985Z,930.06
2017-01-29T13:53:10.357Z,930.01
2017-01-29T13:54:24.732Z,929.97
2017-01-29T13:55:39.105Z,929.96
2017-01-29T13:56:53.519Z,930
2017-01-29T13:58:07.240Z,930
2017-01-29T13:59:21.616Z,930.03
2017-01-29T14:00:35.988Z,930
2017-01-29T14:01:49.733Z,929.98
2017-01-29T14:03:04.088Z,929.99
2017-01-29T14:04:17.816Z,929.92
2017-01-29T14:05:32.218Z,929.92
2017-01-29T14:06:46.631Z,929.91
2017-01-29T14:08:01.034Z,929.91
2017-01-29T14:09:14.799Z,929.9
2017-01-29T14:10:29.186Z,929.95
2017-01-29T14:11:42.924Z,929.95
2017-01-29T14:12:57.332Z,929.94
2017-01-29T14:14:11.736Z,929.99
2017-01-29T14:15:26.111Z,929.98
2017-01-29T14:16:40.709Z,929.96
2017-01-29T14:17:55.091Z,929.98
2017-01-29T14:19:08.844Z,929.97
2017-01-29T14:20:22.591Z,929.91
2017-01-29T14:21:36.961Z,929.92
2017-01-29T14:22:51.360Z,929.9
2017-01-29T14:24:05.797Z,929.82
2017-01-29T14:25:19.558Z,929.83
2017-01-29T14:26:33.921Z,929.84
2017-01-29T14:27:48.321Z,929.88
2017-01-29T14:29:02.720Z,929.85
2017-01-29T14:30:16.468Z,929.86
2017-01-29T14:31:30.869Z,929.82
2017-01-29T14:32:44.610Z,929.78
2017-01-29T14:33:58.363Z,929.8
2017-01-29T14:35:12.778Z,929.83
2017-01-29T14:36:26.509Z,929.88
2017-01-29T14:37:40.865Z,929.81
2017-01-29T14:38:54.602Z,929.82
2017-01-29T14:40:08.989Z,929.76
2017-01-29T15:58:32.760Z,929.05
2017-01-29T15:59:47.191Z,929.09
2017-01-29T16:01:01.603Z,929.03
2017-01-29T16:08:55.755Z,928.96
2017-01-29T16:10:10.184Z,928.97
2017-01-29T16:11:23.941Z,928.97
2017-01-29T16:12:38.320Z,928.93
2017-01-29T16:13:52.753Z,928.89
2017-01-29T16:15:07.139Z,928.87
2017-01-29T16:16:21.552Z,928.89
2017-01-29T16:17:35.945Z,928.89
2017-01-29T16:18:49.660Z,928.91
2017-01-29T16:20:04.027Z,928.86
2017-01-29T16:21:17.127Z,928.89
2017-01-29T16:22:31.551Z,928.91
2017-01-29T16:23:45.947Z,928.89
2017-01-29T16:24:59.686Z,928.88
2017-01-29T16:26:14.060Z,928.92
2017-01-29T16:27:28.462Z,928.89
2017-01-29T16:28:42.846Z,928.89
2017-01-29T16:29:57.215Z,928.89
2017-01-29T16:31:11.590Z,928.87
2017-01-29T16:32:25.330Z,928.9
2017-01-29T16:33:39.750Z,928.88
2017-01-29T16:34:54.167Z,928.86
2017-01-29T16:36:08.590Z,928.86
2017-01-29T16:37:22.988Z,928.79
2017-01-29T16:38:37.391Z,928.73
2017-01-29T16:39:51.115Z,928.76
2017-01-29T16:41:05.459Z,928.73
2017-01-29T16:42:19.823Z,928.74
2017-01-29T16:43:34.195Z,928.75
2017-01-29T16:44:47.921Z,928.76
2017-01-29T16:46:01.679Z,928.8
2017-01-29T16:47:16.131Z,928.76
2017-01-29T16:48:30.544Z,928.8
2017-01-29T16:49:44.974Z,928.77
2017-01-29T16:50:59.423Z,928.84
2017-01-29T16:52:13.810Z,928.89
2017-01-29T16:53:27.564Z,928.88